createdAt,value
2022-09-13T00:01:45.544Z,100913.81
2022-09-13T00:04:12.436Z,100921.88
2022-09-13T00:06:39.126Z,100918.47
2022-09-13T00:09:05.822Z,100913.09
2022-09-13T00:11:32.514Z,100908.59
2022-09-13T00:13:59.404Z,100906.75
2022-09-13T00:16:27.745Z,100908.66
2022-09-13T00:18:54.638Z,100896.19
2022-09-13T00:21:22.514Z,100891.75
2022-09-13T00:23:51.158Z,100893.59
2022-09-13T00:26:28.610Z,100871.25
2022-09-13T00:28:57.816Z,100880.16
2022-09-13T00:31:26.543Z,100870.47
2022-09-13T00:33:53.556Z,100861.63
2022-09-13T00:36:20.241Z,100857.03
2022-09-13T00:38:46.983Z,100850.88
2022-09-13T00:41:16.547Z,100852.72
2022-09-13T00:43:46.175Z,100841.16
2022-09-13T00:46:43.007Z,100843.94
2022-09-13T00:49:14.583Z,100836.88
2022-09-13T00:51:43.021Z,100823.56
2022-09-13T00:54:09.989Z,100827.91
2022-09-13T00:56:40.584Z,100825.53
2022-09-13T00:59:12.659Z,100823.78
2022-09-13T01:01:46.732Z,100823.09
2022-09-13T01:04:13.741Z,100836.63
2022-09-13T01:06:41.545Z,100819.69
2022-09-13T01:09:08.567Z,100809.81
2022-09-13T01:11:45.959Z,100808.97
2022-09-13T01:14:12.896Z,100807.28
2022-09-13T01:16:39.597Z,100803.00
2022-09-13T01:19:06.361Z,100815.78
2022-09-13T01:22:10.131Z,100827.44
2022-09-13T01:24:36.792Z,100824.94
2022-09-13T01:27:22.137Z,100820.66
2022-09-13T01:29:58.734Z,100817.88
2022-09-13T01:32:41.656Z,100811.81
2022-09-13T01:35:24.145Z,100819.94
2022-09-13T01:37:55.713Z,100808.41
2022-09-13T01:41:04.509Z,100806.75
2022-09-13T01:43:35.433Z,100791.84
2022-09-13T01:46:11.226Z,100790.16
2022-09-13T01:49:03.739Z,100793.78
2022-09-13T01:51:34.535Z,100796.53
2022-09-13T01:54:11.226Z,100791.25
2022-09-13T01:56:42.958Z,100797.69
2022-09-13T01:59:22.519Z,100784.41
2022-09-13T02:01:58.965Z,100788.06
2022-09-13T02:04:29.195Z,100779.16
2022-09-13T02:07:09.519Z,100772.00
2022-09-13T02:09:42.633Z,100772.06
2022-09-13T02:12:14.636Z,100769.50
2022-09-13T02:14:44.598Z,100762.38
2022-09-13T02:17:24.440Z,100764.22
2022-09-13T02:20:03.038Z,100767.06
2022-09-13T02:22:34.105Z,100760.91
2022-09-13T02:25:06.530Z,100751.66
2022-09-13T02:27:34.527Z,100743.56
2022-09-13T02:30:05.685Z,100739.28
2022-09-13T02:32:37.453Z,100737.56
2022-09-13T02:35:04.141Z,100733.16
2022-09-13T02:37:33.206Z,100722.44
2022-09-13T02:40:06.687Z,100719.81
2022-09-13T02:42:42.067Z,100717.31
2022-09-13T02:45:09.525Z,100728.94
2022-09-13T02:47:50.283Z,100727.28
2022-09-13T02:50:35.278Z,100735.31
2022-09-13T02:53:11.135Z,100721.06
2022-09-13T02:55:37.978Z,100719.19
2022-09-13T02:58:14.625Z,100720.13
2022-09-13T03:00:41.523Z,100704.09
2022-09-13T03:03:11.022Z,100703.25
2022-09-13T03:05:37.951Z,100693.25
2022-09-13T03:08:06.117Z,100675.53
2022-09-13T03:10:54.002Z,100680.00
2022-09-13T03:13:23.705Z,100680.00
2022-09-13T03:15:50.972Z,100675.59
2022-09-13T03:18:33.115Z,100668.56
2022-09-13T03:21:36.800Z,100673.16
2022-09-13T03:24:23.689Z,100667.84
2022-09-13T03:27:18.435Z,100663.34
2022-09-13T03:30:07.937Z,100668.72
2022-09-13T03:32:47.000Z,100667.06
2022-09-13T03:35:23.033Z,100659.94
2022-09-13T03:37:57.292Z,100670.66
2022-09-13T03:40:36.309Z,100668.94
2022-09-13T03:43:18.716Z,100670.84
2022-09-13T03:45:49.596Z,100666.47
2022-09-13T03:48:16.905Z,100664.75
2022-09-13T03:50:45.885Z,100662.94
2022-09-13T03:53:15.516Z,100658.59
2022-09-13T03:55:43.471Z,100659.47
2022-09-13T03:58:15.480Z,100659.53
2022-09-13T04:00:42.525Z,100647.66
2022-09-13T04:03:09.586Z,100646.56
2022-09-13T04:05:36.395Z,100640.09
2022-09-13T04:08:05.887Z,100639.19
2022-09-13T04:10:33.390Z,100637.22
2022-09-13T04:13:00.576Z,100636.25
2022-09-13T04:15:28.167Z,100638.88
2022-09-13T04:17:54.912Z,100641.25
2022-09-13T04:20:22.241Z,100630.28
2022-09-13T04:22:53.274Z,100632.03
2022-09-13T04:25:20.712Z,100625.66
2022-09-13T04:27:47.386Z,100622.94
2022-09-13T04:30:14.528Z,100612.13
2022-09-13T04:32:44.765Z,100609.34
2022-09-13T04:35:12.032Z,100613.53
2022-09-13T04:37:39.288Z,100608.09
2022-09-13T04:40:09.526Z,100611.59
2022-09-13T04:42:36.338Z,100617.13
2022-09-13T04:45:03.437Z,100608.66
2022-09-13T04:47:31.050Z,100608.38
2022-09-13T04:49:57.788Z,100606.41
2022-09-13T04:52:24.477Z,100608.00
2022-09-13T04:54:51.200Z,100598.34
2022-09-13T04:57:17.967Z,100588.63
2022-09-13T04:59:44.765Z,100587.47
2022-09-13T05:02:11.585Z,100590.78
2022-09-13T05:04:38.649Z,100592.63
2022-09-13T05:07:05.316Z,100584.63
2022-09-13T05:09:32.214Z,100578.69
2022-09-13T05:11:58.871Z,100579.88
2022-09-13T05:14:25.692Z,100578.09
2022-09-13T05:16:52.681Z,100566.53
2022-09-13T05:19:19.353Z,100572.34
2022-09-13T05:21:46.016Z,100569.06
2022-09-13T05:24:12.702Z,100567.47
2022-09-13T05:26:39.396Z,100553.75
2022-09-13T05:29:06.079Z,100560.84
2022-09-13T05:31:35.522Z,100567.63
2022-09-13T05:34:06.727Z,100568.88
2022-09-13T05:36:33.674Z,100561.56
2022-09-13T05:39:28.473Z,100563.63
2022-09-13T05:41:48.380Z,100565.03
2022-09-13T05:44:15.064Z,100578.06
2022-09-13T05:46:42.990Z,100573.72
2022-09-13T05:49:09.671Z,100577.78
2022-09-13T05:51:36.575Z,100577.41
2022-09-13T05:54:03.561Z,100589.97
2022-09-13T05:56:32.199Z,100584.66
2022-09-13T05:58:59.273Z,100577.50
2022-09-13T06:01:27.895Z,100582.59
2022-09-13T06:03:56.517Z,100585.03
2022-09-13T06:06:24.148Z,100582.72
2022-09-13T06:08:57.706Z,100587.47
2022-09-13T06:11:26.300Z,100595.06
2022-09-13T06:13:53.389Z,100596.34
2022-09-13T06:16:20.407Z,100598.81
2022-09-13T06:18:47.089Z,100596.69
2022-09-13T06:21:18.232Z,100602.78
2022-09-13T06:23:54.632Z,100600.00
2022-09-13T06:26:23.573Z,100595.50
2022-09-13T06:28:51.765Z,100598.09
2022-09-13T06:31:20.537Z,100590.75
2022-09-13T06:33:47.505Z,100599.56
2022-09-13T06:36:18.804Z,100602.34
2022-09-13T06:38:49.117Z,100601.22
2022-09-13T06:41:20.758Z,100605.44
2022-09-13T06:43:48.172Z,100595.91
2022-09-13T06:46:20.475Z,100585.78
2022-09-13T06:48:50.965Z,100577.38
2022-09-13T06:51:19.570Z,100573.38
2022-09-13T06:53:48.541Z,100572.03
2022-09-13T06:56:17.527Z,100564.00
2022-09-13T06:58:46.168Z,100567.91
2022-09-13T07:01:18.864Z,100546.22
2022-09-13T07:03:48.186Z,100569.25
2022-09-13T07:06:22.412Z,100557.50
2022-09-13T07:08:51.590Z,100549.84
2022-09-13T07:11:21.061Z,100553.31
2022-09-13T07:13:52.377Z,100549.63
2022-09-13T07:16:21.307Z,100548.97
2022-09-13T07:18:52.619Z,100548.63
2022-09-13T07:21:19.479Z,100545.94
2022-09-13T07:23:46.233Z,100537.94
2022-09-13T07:26:12.921Z,100540.06
2022-09-13T07:28:41.278Z,100543.91
2022-09-13T07:31:10.840Z,100533.69
2022-09-13T07:33:39.029Z,100530.78
2022-09-13T07:36:06.889Z,100534.50
2022-09-13T07:38:34.986Z,100536.63
2022-09-13T07:41:02.094Z,100534.16
2022-09-13T07:43:29.384Z,100529.75
2022-09-13T07:46:10.258Z,100533.97
2022-09-13T07:48:39.522Z,100532.63
2022-09-13T07:51:08.832Z,100547.19
2022-09-13T07:53:36.844Z,100550.63
2022-09-13T07:56:14.952Z,100547.91
2022-09-13T07:58:43.416Z,100555.34
2022-09-13T08:01:16.132Z,100543.66
2022-09-13T08:03:43.228Z,100545.28
2022-09-13T08:06:10.202Z,100542.25
2022-09-13T08:08:37.579Z,100541.88
2022-09-13T08:11:06.268Z,100542.94
2022-09-13T08:13:33.286Z,100538.72
2022-09-13T08:16:05.058Z,100532.88
2022-09-13T08:18:32.125Z,100535.66
2022-09-13T08:20:59.886Z,100542.66
2022-09-13T08:23:27.489Z,100543.16
2022-09-13T08:25:54.292Z,100544.47
2022-09-13T08:28:26.784Z,100557.56
2022-09-13T08:30:54.282Z,100557.16
2022-09-13T08:33:21.196Z,100570.91
2022-09-13T08:35:52.622Z,100574.47
2022-09-13T08:38:19.965Z,100557.69
2022-09-13T08:40:55.816Z,100564.25
2022-09-13T08:43:46.294Z,100565.41
2022-09-13T08:46:27.148Z,100561.06
2022-09-13T08:48:56.807Z,100554.09
2022-09-13T08:51:39.289Z,100551.81
2022-09-13T08:54:06.420Z,100540.53
2022-09-13T08:56:42.624Z,100539.75
2022-09-13T08:59:27.139Z,100535.97
2022-09-13T09:02:18.646Z,100535.19
2022-09-13T09:05:01.737Z,100527.69
2022-09-13T09:07:31.935Z,100519.94
2022-09-13T09:09:59.915Z,100516.63
2022-09-13T09:12:32.746Z,100512.94
2022-09-13T09:15:04.534Z,100501.81
2022-09-13T09:18:04.965Z,100510.28
2022-09-13T09:20:41.027Z,100508.00
2022-09-13T09:23:30.457Z,100514.28
2022-09-13T09:26:09.512Z,100515.94
2022-09-13T09:28:36.187Z,100521.50
2022-09-13T09:31:08.903Z,100519.88
2022-09-13T09:34:08.884Z,100524.84
2022-09-13T09:37:13.903Z,100520.19
2022-09-13T09:39:40.946Z,100522.28
2022-09-13T09:42:28.695Z,100519.94
2022-09-13T09:44:58.646Z,100518.09
2022-09-13T09:47:33.118Z,100525.59
2022-09-13T09:50:09.457Z,100512.78
2022-09-13T09:53:14.950Z,100515.16
2022-09-13T09:56:01.146Z,100514.16
2022-09-13T09:58:39.793Z,100514.16
2022-09-13T10:01:25.930Z,100506.81
2022-09-13T10:04:13.075Z,100502.41
2022-09-13T10:06:41.256Z,100495.84
2022-09-13T10:09:16.932Z,100496.16
2022-09-13T10:11:58.279Z,100501.09
2022-09-13T10:14:38.295Z,100498.50
2022-09-13T10:17:06.594Z,100496.34
2022-09-13T10:19:33.653Z,100507.59
2022-09-13T10:22:02.632Z,100497.00
2022-09-13T10:24:30.642Z,100498.63
2022-09-13T10:26:58.551Z,100493.44
2022-09-13T10:29:27.815Z,100489.72
2022-09-13T10:31:57.913Z,100484.47
2022-09-13T10:34:29.177Z,100478.31
2022-09-13T10:37:21.587Z,100481.91
2022-09-13T10:40:05.529Z,100482.81
2022-09-13T10:42:32.650Z,100478.53
2022-09-13T10:45:02.132Z,100480.72
2022-09-13T10:47:40.259Z,100479.81
2022-09-13T10:50:22.568Z,100476.88
2022-09-13T10:52:59.877Z,100472.13
2022-09-13T10:55:31.423Z,100472.41
2022-09-13T10:58:07.503Z,100472.00
2022-09-13T11:01:06.106Z,100483.66
2022-09-13T11:03:38.695Z,100493.00
2022-09-13T11:06:31.078Z,100494.69
2022-09-13T11:09:19.254Z,100484.53
2022-09-13T11:12:21.977Z,100487.69
2022-09-13T11:15:05.175Z,100486.00
2022-09-13T11:17:50.219Z,100488.81
2022-09-13T11:20:27.408Z,100495.16
2022-09-13T11:22:57.024Z,100488.84
2022-09-13T11:25:38.219Z,100484.09
2022-09-13T11:28:10.530Z,100479.66
2022-09-13T11:31:03.539Z,100494.94
2022-09-13T11:33:46.315Z,100481.41
2022-09-13T11:36:24.870Z,100479.69
2022-09-13T11:39:08.578Z,100483.38
2022-09-13T11:41:48.515Z,100483.25
2022-09-13T11:44:40.762Z,100476.97
2022-09-13T11:47:26.438Z,100477.13
2022-09-13T11:50:04.433Z,100484.63
2022-09-13T11:53:24.218Z,100473.91
2022-09-13T11:56:02.145Z,100474.41
2022-09-13T11:58:35.619Z,100478.06
2022-09-13T12:01:05.436Z,100473.66
2022-09-13T12:03:50.703Z,100475.13
2022-09-13T12:06:34.317Z,100464.53
2022-09-13T12:09:07.119Z,100469.59
2022-09-13T12:11:35.833Z,100462.56
2022-09-13T12:14:05.920Z,100475.38
2022-09-13T12:16:36.027Z,100465.03
2022-09-13T12:19:17.607Z,100461.38
2022-09-13T12:21:45.022Z,100465.28
2022-09-13T12:24:17.104Z,100464.19
2022-09-13T12:27:23.946Z,100468.50
2022-09-13T12:29:53.675Z,100479.94
2022-09-13T12:32:21.167Z,100468.38
2022-09-13T12:34:58.681Z,100464.94
2022-09-13T12:37:31.701Z,100465.91
2022-09-13T12:40:18.773Z,100438.84
2022-09-13T12:42:56.685Z,100462.56
2022-09-13T12:45:50.978Z,100471.56
2022-09-13T12:48:43.784Z,100465.28
2022-09-13T12:51:40.462Z,100464.41
2022-09-13T12:54:07.657Z,100460.63
2022-09-13T12:56:46.007Z,100461.22
2022-09-13T12:59:24.868Z,100450.03
2022-09-13T13:01:52.422Z,100449.41
2022-09-13T13:04:21.761Z,100452.00
2022-09-13T13:06:57.627Z,100449.88
2022-09-13T13:09:31.468Z,100455.56
2022-09-13T13:11:58.663Z,100451.97
2022-09-13T13:14:40.760Z,100445.19
2022-09-13T13:17:44.922Z,100449.16
2022-09-13T13:20:49.262Z,100444.34
2022-09-13T13:23:38.551Z,100439.56
2022-09-13T13:26:12.256Z,100431.06
2022-09-13T13:28:48.215Z,100430.69
2022-09-13T13:31:24.104Z,100442.38
2022-09-13T13:34:14.137Z,100437.56
2022-09-13T13:36:41.138Z,100438.06
2022-09-13T13:39:10.400Z,100441.16
2022-09-13T13:41:40.521Z,100433.66
2022-09-13T13:44:19.871Z,100442.63
2022-09-13T13:46:51.340Z,100435.84
2022-09-13T13:49:30.288Z,100430.19
2022-09-13T13:52:09.344Z,100419.59
2022-09-13T13:54:42.166Z,100411.09
2022-09-13T13:57:21.131Z,100418.06
2022-09-13T13:59:50.199Z,100418.78
2022-09-13T14:02:19.277Z,100415.31
2022-09-13T14:05:18.952Z,100421.88
2022-09-13T14:08:19.807Z,100415.75
2022-09-13T14:11:31.545Z,100420.31
2022-09-13T14:14:23.655Z,100420.31
2022-09-13T14:17:00.526Z,100426.78
2022-09-13T14:19:28.783Z,100421.28
2022-09-13T14:22:15.740Z,100423.25
2022-09-13T14:24:48.888Z,100423.25
2022-09-13T14:27:23.804Z,100415.19
2022-09-13T14:29:55.898Z,100410.13
2022-09-13T14:32:26.885Z,100419.59
2022-09-13T14:35:01.351Z,100430.41
2022-09-13T14:37:31.872Z,100426.44
2022-09-13T14:40:01.721Z,100417.69
2022-09-13T14:42:39.503Z,100424.72
2022-09-13T14:45:06.555Z,100423.78
2022-09-13T14:47:53.425Z,100413.34
2022-09-13T14:50:27.560Z,100404.69
2022-09-13T14:52:54.218Z,100404.56
2022-09-13T14:55:43.462Z,100401.97
2022-09-13T14:58:23.333Z,100402.84
2022-09-13T15:00:53.453Z,100402.09
2022-09-13T15:03:20.383Z,100400.88
2022-09-13T15:05:59.902Z,100399.03
2022-09-13T15:08:32.823Z,100391.63
2022-09-13T15:11:06.933Z,100397.22
2022-09-13T15:13:34.163Z,100384.06
2022-09-13T15:16:00.955Z,100386.00
2022-09-13T15:18:36.147Z,100378.22
2022-09-13T15:21:07.553Z,100386.00
2022-09-13T15:23:39.601Z,100385.50
2022-09-13T15:26:13.160Z,100383.97
2022-09-13T15:28:48.962Z,100385.59
2022-09-13T15:31:23.400Z,100377.09
2022-09-13T15:34:13.958Z,100382.16
2022-09-13T15:36:40.673Z,100379.06
2022-09-13T15:39:17.576Z,100375.63
2022-09-13T15:41:59.189Z,100380.06
2022-09-13T15:44:29.961Z,100383.97
2022-09-13T15:47:05.083Z,100381.28
2022-09-13T15:49:32.361Z,100387.09
2022-09-13T15:52:03.312Z,100388.19
2022-09-13T15:54:34.912Z,100385.13
2022-09-13T15:57:01.822Z,100383.06
2022-09-13T15:59:28.612Z,100383.56
2022-09-13T16:01:56.046Z,100386.66
2022-09-13T16:04:23.224Z,100391.44
2022-09-13T16:06:49.988Z,100387.91
2022-09-13T16:09:20.845Z,100380.16
2022-09-13T16:11:48.838Z,100381.00
2022-09-13T16:14:15.885Z,100374.72
2022-09-13T16:16:43.017Z,100379.28
2022-09-13T16:19:16.900Z,100365.34
2022-09-13T16:21:43.628Z,100364.00
2022-09-13T16:24:11.538Z,100365.63
2022-09-13T16:26:38.788Z,100357.63
2022-09-13T16:29:05.792Z,100358.34
2022-09-13T16:31:32.652Z,100365.34
2022-09-13T16:33:59.341Z,100363.63
2022-09-13T16:36:28.914Z,100369.03
2022-09-13T16:38:56.459Z,100363.03
2022-09-13T16:41:23.415Z,100356.16
2022-09-13T16:43:51.413Z,100358.72
2022-09-13T16:46:18.307Z,100360.84
2022-09-13T16:48:45.181Z,100358.59
2022-09-13T16:51:12.935Z,100362.19
2022-09-13T16:53:41.624Z,100363.53
2022-09-13T16:56:16.538Z,100356.66
2022-09-13T16:58:46.826Z,100358.88
2022-09-13T17:01:15.730Z,100365.41
2022-09-13T17:03:42.742Z,100360.94
2022-09-13T17:06:11.828Z,100364.53
2022-09-13T17:08:40.213Z,100360.97
2022-09-13T17:11:12.676Z,100356.31
2022-09-13T17:13:40.803Z,100362.69
2022-09-13T17:16:20.731Z,100367.47
2022-09-13T17:18:47.623Z,100367.94
2022-09-13T17:21:14.321Z,100374.69
2022-09-13T17:23:41.062Z,100371.38
2022-09-13T17:26:07.787Z,100371.63
2022-09-13T17:28:36.714Z,100381.06
2022-09-13T17:31:03.520Z,100368.88
2022-09-13T17:33:30.254Z,100375.41
2022-09-13T17:36:05.977Z,100375.91
2022-09-13T17:38:33.073Z,100376.59
2022-09-13T17:41:05.746Z,100374.16
2022-09-13T17:43:33.781Z,100378.94
2022-09-13T17:46:05.695Z,100376.47
2022-09-13T17:48:32.420Z,100375.22
2022-09-13T17:51:07.976Z,100368.06
2022-09-13T17:53:55.828Z,100372.34
2022-09-13T17:56:31.437Z,100372.72
2022-09-13T17:59:10.224Z,100370.34
2022-09-13T18:01:39.429Z,100376.22
2022-09-13T18:04:07.927Z,100381.00
2022-09-13T18:06:36.530Z,100377.75
2022-09-13T18:09:08.161Z,100378.97
2022-09-13T18:11:35.470Z,100380.28
2022-09-13T18:14:02.862Z,100385.81
2022-09-13T18:16:30.200Z,100383.47
2022-09-13T18:18:57.068Z,100381.97
2022-09-13T18:21:25.424Z,100385.03
2022-09-13T18:23:55.620Z,100384.50
2022-09-13T18:26:23.531Z,100383.75
2022-09-13T18:28:56.056Z,100374.25
2022-09-13T18:31:23.846Z,100381.94
2022-09-13T18:33:58.320Z,100383.56
2022-09-13T18:36:26.234Z,100387.34
2022-09-13T18:38:53.905Z,100382.06
2022-09-13T18:41:23.533Z,100379.47
2022-09-13T18:43:55.437Z,100387.66
2022-09-13T18:46:25.227Z,100391.72
2022-09-13T18:48:54.382Z,100393.88
2022-09-13T18:51:35.532Z,100393.22
2022-09-13T18:54:03.151Z,100394.22
2022-09-13T18:56:29.937Z,100395.41
2022-09-13T18:58:56.965Z,100386.88
2022-09-13T19:01:26.989Z,100390.97
2022-09-13T19:04:02.193Z,100391.06
2022-09-13T19:06:40.706Z,100395.09
2022-09-13T19:09:08.501Z,100399.63
2022-09-13T19:11:47.211Z,100399.72
2022-09-13T19:14:23.362Z,100399.09
2022-09-13T19:16:51.280Z,100397.47
2022-09-13T19:19:18.041Z,100407.41
2022-09-13T19:21:45.022Z,100404.78
2022-09-13T19:24:18.447Z,100397.78
2022-09-13T19:26:47.484Z,100401.56
2022-09-13T19:29:15.798Z,100409.97
2022-09-13T19:31:47.688Z,100411.03
2022-09-13T19:34:15.602Z,100410.28
2022-09-13T19:36:44.318Z,100401.78
2022-09-13T19:39:11.219Z,100406.09
2022-09-13T19:41:38.844Z,100407.28
2022-09-13T19:44:06.006Z,100410.84
2022-09-13T19:46:35.618Z,100404.03
2022-09-13T19:49:02.941Z,100414.81
2022-09-13T19:51:35.798Z,100401.66
2022-09-13T19:54:03.957Z,100406.22
2022-09-13T19:56:34.409Z,100404.59
2022-09-13T19:59:01.829Z,100413.88
2022-09-13T20:01:31.822Z,100405.97
2022-09-13T20:04:03.391Z,100403.50
2022-09-13T20:06:44.749Z,100399.50
2022-09-13T20:09:13.191Z,100413.84
2022-09-13T20:11:42.550Z,100414.06
2022-09-13T20:14:11.272Z,100411.69
2022-09-13T20:16:39.614Z,100413.63
2022-09-13T20:19:29.540Z,100417.28
2022-09-13T20:21:55.698Z,100406.72
2022-09-13T20:24:23.313Z,100408.56
2022-09-13T20:26:52.305Z,100403.59
2022-09-13T20:29:19.524Z,100410.16
2022-09-13T20:31:47.274Z,100408.63
2022-09-13T20:34:17.383Z,100396.88
2022-09-13T20:36:45.673Z,100405.06
2022-09-13T20:39:12.514Z,100399.78
2022-09-13T20:41:39.253Z,100402.69
2022-09-13T20:44:07.690Z,100396.63
2022-09-13T20:46:34.435Z,100402.88
2022-09-13T20:49:02.555Z,100395.78
2022-09-13T20:51:33.942Z,100401.34
2022-09-13T20:54:01.382Z,100398.75
2022-09-13T20:56:29.046Z,100406.84
2022-09-13T20:58:58.405Z,100390.88
2022-09-13T21:01:26.672Z,100389.16
2022-09-13T21:03:54.707Z,100388.28
2022-09-13T21:06:27.329Z,100390.13
2022-09-13T21:08:56.516Z,100385.72
2022-09-13T21:11:34.042Z,100392.91
2022-09-13T21:14:05.515Z,100394.84
2022-09-13T21:16:34.433Z,100405.06
2022-09-13T21:19:01.497Z,100401.50
2022-09-13T21:21:30.661Z,100396.34
2022-09-13T21:23:58.500Z,100398.28
2022-09-13T21:26:27.046Z,100405.69
2022-09-13T21:28:54.797Z,100399.63
2022-09-13T21:31:25.206Z,100397.16
2022-09-13T21:33:56.859Z,100406.28
2022-09-13T21:36:24.225Z,100408.44
2022-09-13T21:38:52.035Z,100416.50
2022-09-13T21:41:18.899Z,100413.91
2022-09-13T21:43:45.722Z,100424.91
2022-09-13T21:46:16.820Z,100426.03
2022-09-13T21:48:46.547Z,100419.88
2022-09-13T21:51:18.357Z,100427.97
2022-09-13T21:53:46.210Z,100427.50
2022-09-13T21:56:15.408Z,100428.56
2022-09-13T21:58:42.712Z,100433.47
2022-09-13T22:01:14.354Z,100431.75
2022-09-13T22:03:43.270Z,100433.00
2022-09-13T22:06:19.639Z,100430.31
2022-09-13T22:08:49.333Z,100423.31
2022-09-13T22:11:19.908Z,100432.63
2022-09-13T22:13:47.732Z,100426.69
2022-09-13T22:16:21.300Z,100423.44
2022-09-13T22:18:57.730Z,100428.31
2022-09-13T22:21:27.409Z,100425.84
2022-09-13T22:23:54.566Z,100423.50
2022-09-13T22:26:23.935Z,100423.59
2022-09-13T22:28:51.296Z,100426.66
2022-09-13T22:31:20.749Z,100435.13
2022-09-13T22:33:47.530Z,100444.13
2022-09-13T22:36:15.834Z,100440.78
2022-09-13T22:38:43.691Z,100436.34
2022-09-13T22:41:14.166Z,100434.72
2022-09-13T22:43:41.754Z,100433.28
2022-09-13T22:46:09.841Z,100435.97
2022-09-13T22:48:36.707Z,100433.56
2022-09-13T22:51:06.173Z,100424.75
2022-09-13T22:53:35.170Z,100424.81
2022-09-13T22:56:05.989Z,100422.31
2022-09-13T22:58:32.716Z,100427.00
2022-09-13T23:01:04.750Z,100422.69
2022-09-13T23:03:31.938Z,100426.53
2022-09-13T23:05:58.619Z,100434.66
2022-09-13T23:08:28.389Z,100432.09
2022-09-13T23:10:56.159Z,100439.47
2022-09-13T23:13:22.939Z,100435.03
2022-09-13T23:15:50.085Z,100438.03
2022-09-13T23:18:16.781Z,100439.94
2022-09-13T23:20:43.505Z,100426.78
2022-09-13T23:23:11.254Z,100433.88
2022-09-13T23:25:37.980Z,100433.09
2022-09-13T23:28:04.699Z,100431.56
2022-09-13T23:30:31.354Z,100438.75
2022-09-13T23:32:58.105Z,100432.69
2022-09-13T23:35:24.866Z,100431.16
2022-09-13T23:37:51.550Z,100438.44
2022-09-13T23:40:18.299Z,100437.66
2022-09-13T23:42:44.997Z,100432.28
2022-09-13T23:45:12.272Z,100432.38
2022-09-13T23:47:39.085Z,100428.84
2022-09-13T23:50:06.163Z,100426.16
2022-09-13T23:52:33.051Z,100433.31
2022-09-13T23:55:00.619Z,100420.09
2022-09-13T23:57:27.321Z,100432.66
2022-09-13T23:59:53.970Z,100432.03
